sensor_id;sensor_type;location;lat;lon;timestamp;P1;durP1;ratioP1;P2;durP2;ratioP2
13764;SDS011;6953;48.810;9.204;2023-02-22T00:02:10;0.70;;;0.70;;
13764;SDS011;6953;48.810;9.204;2023-02-22T00:04:37;0.60;;;0.60;;
13764;SDS011;6953;48.810;9.204;2023-02-22T00:07:03;0.70;;;0.70;;
13764;SDS011;6953;48.810;9.204;2023-02-22T00:09:29;0.70;;;0.70;;
13764;SDS011;6953;48.810;9.204;2023-02-22T00:11:55;0.70;;;0.70;;
13764;SDS011;6953;48.810;9.204;2023-02-22T00:14:20;0.60;;;0.60;;
13764;SDS011;6953;48.810;9.204;2023-02-22T00:16:45;0.60;;;0.60;;
13764;SDS011;6953;48.810;9.204;2023-02-22T00:19:11;0.60;;;0.60;;
13764;SDS011;6953;48.810;9.204;2023-02-22T00:21:36;0.63;;;0.63;;
13764;SDS011;6953;48.810;9.204;2023-02-22T00:24:01;0.67;;;0.67;;
13764;SDS011;6953;48.810;9.204;2023-02-22T00:26:46;0.70;;;0.70;;
13764;SDS011;6953;48.810;9.204;2023-02-22T00:29:12;0.70;;;0.70;;
13764;SDS011;6953;48.810;9.204;2023-02-22T00:31:37;0.80;;;0.80;;
13764;SDS011;6953;48.810;9.204;2023-02-22T00:34:03;0.77;;;0.77;;
13764;SDS011;6953;48.810;9.204;2023-02-22T00:36:28;0.60;;;0.60;;
13764;SDS011;6953;48.810;9.204;2023-02-22T00:38:54;0.50;;;0.50;;
13764;SDS011;6953;48.810;9.204;2023-02-22T00:41:19;0.67;;;0.67;;
13764;SDS011;6953;48.810;9.204;2023-02-22T00:43:45;0.60;;;0.60;;
13764;SDS011;6953;48.810;9.204;2023-02-22T00:46:13;0.60;;;0.60;;
13764;SDS011;6953;48.810;9.204;2023-02-22T00:48:38;0.80;;;0.80;;
13764;SDS011;6953;48.810;9.204;2023-02-22T00:51:04;0.77;;;0.77;;
13764;SDS011;6953;48.810;9.204;2023-02-22T00:53:29;0.60;;;0.60;;
13764;SDS011;6953;48.810;9.204;2023-02-22T00:55:55;0.60;;;0.60;;
13764;SDS011;6953;48.810;9.204;2023-02-22T00:58:20;0.70;;;0.70;;
13764;SDS011;6953;48.810;9.204;2023-02-22T01:00:47;0.67;;;0.67;;
13764;SDS011;6953;48.810;9.204;2023-02-22T01:03:16;0.60;;;0.60;;
13764;SDS011;6953;48.810;9.204;2023-02-22T01:05:43;0.60;;;0.60;;
13764;SDS011;6953;48.810;9.204;2023-02-22T01:08:09;0.60;;;0.60;;
13764;SDS011;6953;48.810;9.204;2023-02-22T01:10:36;0.63;;;0.63;;
13764;SDS011;6953;48.810;9.204;2023-02-22T01:13:03;0.63;;;0.63;;
13764;SDS011;6953;48.810;9.204;2023-02-22T01:15:32;0.70;;;0.70;;
13764;SDS011;6953;48.810;9.204;2023-02-22T01:17:59;0.80;;;0.80;;
13764;SDS011;6953;48.810;9.204;2023-02-22T01:20:24;0.63;;;0.63;;
13764;SDS011;6953;48.810;9.204;2023-02-22T01:22:52;0.70;;;0.70;;
13764;SDS011;6953;48.810;9.204;2023-02-22T01:25:19;0.70;;;0.70;;
13764;SDS011;6953;48.810;9.204;2023-02-22T01:27:46;0.77;;;0.77;;
13764;SDS011;6953;48.810;9.204;2023-02-22T01:30:12;0.70;;;0.70;;
13764;SDS011;6953;48.810;9.204;2023-02-22T01:32:39;0.60;;;0.60;;
13764;SDS011;6953;48.810;9.204;2023-02-22T01:35:11;0.70;;;0.70;;
13764;SDS011;6953;48.810;9.204;2023-02-22T01:37:39;0.60;;;0.60;;
13764;SDS011;6953;48.810;9.204;2023-02-22T01:40:05;0.60;;;0.60;;
13764;SDS011;6953;48.810;9.204;2023-02-22T01:42:33;0.57;;;0.57;;
13764;SDS011;6953;48.810;9.204;2023-02-22T01:48:06;0.50;;;0.50;;
13764;SDS011;6953;48.810;9.204;2023-02-22T01:50:33;0.70;;;0.70;;
13764;SDS011;6953;48.810;9.204;2023-02-22T01:53:01;0.60;;;0.60;;
13764;SDS011;6953;48.810;9.204;2023-02-22T01:55:28;0.47;;;0.47;;
13764;SDS011;6953;48.810;9.204;2023-02-22T01:57:55;0.50;;;0.50;;
13764;SDS011;6953;48.810;9.204;2023-02-22T02:00:24;0.40;;;0.40;;
13764;SDS011;6953;48.810;9.204;2023-02-22T02:02:53;0.60;;;0.60;;
13764;SDS011;6953;48.810;9.204;2023-02-22T02:05:25;0.53;;;0.53;;
13764;SDS011;6953;48.810;9.204;2023-02-22T02:07:55;0.70;;;0.70;;
13764;SDS011;6953;48.810;9.204;2023-02-22T02:10:21;0.40;;;0.40;;
13764;SDS011;6953;48.810;9.204;2023-02-22T02:12:48;0.60;;;0.60;;
13764;SDS011;6953;48.810;9.204;2023-02-22T02:17:40;0.70;;;0.70;;
13764;SDS011;6953;48.810;9.204;2023-02-22T02:22:48;0.70;;;0.70;;
13764;SDS011;6953;48.810;9.204;2023-02-22T02:28:11;0.70;;;0.70;;
13764;SDS011;6953;48.810;9.204;2023-02-22T02:41:36;0.60;;;0.60;;
13764;SDS011;6953;48.810;9.204;2023-02-22T02:44:17;0.70;;;0.70;;
13764;SDS011;6953;48.810;9.204;2023-02-22T02:46:53;0.60;;;0.60;;
13764;SDS011;6953;48.810;9.204;2023-02-22T02:49:26;0.57;;;0.57;;
13764;SDS011;6953;48.810;9.204;2023-02-22T02:51:58;0.50;;;0.50;;
13764;SDS011;6953;48.810;9.204;2023-02-22T02:54:24;0.57;;;0.57;;
13764;SDS011;6953;48.810;9.204;2023-02-22T02:56:51;0.50;;;0.50;;
13764;SDS011;6953;48.810;9.204;2023-02-22T02:59:27;0.70;;;0.70;;
13764;SDS011;6953;48.810;9.204;2023-02-22T03:01:56;0.60;;;0.60;;
13764;SDS011;6953;48.810;9.204;2023-02-22T03:07:17;0.60;;;0.60;;
13764;SDS011;6953;48.810;9.204;2023-02-22T03:12:37;0.70;;;0.70;;
13764;SDS011;6953;48.810;9.204;2023-02-22T03:15:12;0.70;;;0.70;;
13764;SDS011;6953;48.810;9.204;2023-02-22T03:17:55;0.70;;;0.70;;
13764;SDS011;6953;48.810;9.204;2023-02-22T03:25:57;0.50;;;0.50;;
13764;SDS011;6953;48.810;9.204;2023-02-22T03:28:27;0.60;;;0.60;;
13764;SDS011;6953;48.810;9.204;2023-02-22T03:30:59;0.70;;;0.70;;
13764;SDS011;6953;48.810;9.204;2023-02-22T03:33:35;0.60;;;0.60;;
13764;SDS011;6953;48.810;9.204;2023-02-22T03:36:24;0.50;;;0.50;;
13764;SDS011;6953;48.810;9.204;2023-02-22T03:38:56;0.47;;;0.47;;
13764;SDS011;6953;48.810;9.204;2023-02-22T03:41:24;0.57;;;0.57;;
13764;SDS011;6953;48.810;9.204;2023-02-22T03:43:59;0.70;;;0.70;;
13764;SDS011;6953;48.810;9.204;2023-02-22T03:46:30;0.60;;;0.60;;
13764;SDS011;6953;48.810;9.204;2023-02-22T03:49:10;0.57;;;0.57;;
13764;SDS011;6953;48.810;9.204;2023-02-22T03:51:42;0.60;;;0.60;;
13764;SDS011;6953;48.810;9.204;2023-02-22T03:54:07;0.70;;;0.70;;
13764;SDS011;6953;48.810;9.204;2023-02-22T03:56:42;0.70;;;0.70;;
13764;SDS011;6953;48.810;9.204;2023-02-22T03:59:14;0.70;;;0.70;;
13764;SDS011;6953;48.810;9.204;2023-02-22T04:01:40;0.70;;;0.70;;
13764;SDS011;6953;48.810;9.204;2023-02-22T04:04:05;0.70;;;0.70;;
13764;SDS011;6953;48.810;9.204;2023-02-22T04:06:31;0.50;;;0.50;;
13764;SDS011;6953;48.810;9.204;2023-02-22T04:08:56;0.60;;;0.60;;
13764;SDS011;6953;48.810;9.204;2023-02-22T04:11:22;0.50;;;0.50;;
13764;SDS011;6953;48.810;9.204;2023-02-22T04:13:47;0.60;;;0.60;;
13764;SDS011;6953;48.810;9.204;2023-02-22T04:16:12;0.57;;;0.57;;
13764;SDS011;6953;48.810;9.204;2023-02-22T04:18:38;0.60;;;0.60;;
13764;SDS011;6953;48.810;9.204;2023-02-22T04:21:03;0.60;;;0.60;;
13764;SDS011;6953;48.810;9.204;2023-02-22T04:23:29;0.70;;;0.70;;
13764;SDS011;6953;48.810;9.204;2023-02-22T04:25:54;0.70;;;0.70;;
13764;SDS011;6953;48.810;9.204;2023-02-22T04:28:20;0.60;;;0.60;;
13764;SDS011;6953;48.810;9.204;2023-02-22T04:30:45;0.60;;;0.60;;
13764;SDS011;6953;48.810;9.204;2023-02-22T04:33:11;0.70;;;0.70;;
13764;SDS011;6953;48.810;9.204;2023-02-22T04:35:37;0.70;;;0.70;;
13764;SDS011;6953;48.810;9.204;2023-02-22T04:38:02;0.70;;;0.70;;
13764;SDS011;6953;48.810;9.204;2023-02-22T04:40:28;0.70;;;0.70;;
13764;SDS011;6953;48.810;9.204;2023-02-22T04:42:54;0.60;;;0.60;;
13764;SDS011;6953;48.810;9.204;2023-02-22T04:45:19;0.60;;;0.60;;
13764;SDS011;6953;48.810;9.204;2023-02-22T04:47:44;0.60;;;0.60;;
13764;SDS011;6953;48.810;9.204;2023-02-22T04:50:10;0.60;;;0.60;;
13764;SDS011;6953;48.810;9.204;2023-02-22T04:52:36;0.60;;;0.60;;
13764;SDS011;6953;48.810;9.204;2023-02-22T04:55:01;0.70;;;0.70;;
13764;SDS011;6953;48.810;9.204;2023-02-22T04:57:26;0.60;;;0.60;;
13764;SDS011;6953;48.810;9.204;2023-02-22T04:59:52;0.70;;;0.70;;
13764;SDS011;6953;48.810;9.204;2023-02-22T05:02:18;0.70;;;0.70;;
13764;SDS011;6953;48.810;9.204;2023-02-22T05:04:43;0.60;;;0.60;;
13764;SDS011;6953;48.810;9.204;2023-02-22T05:07:09;0.60;;;0.60;;
13764;SDS011;6953;48.810;9.204;2023-02-22T05:09:34;0.70;;;0.70;;
13764;SDS011;6953;48.810;9.204;2023-02-22T05:12:00;0.60;;;0.60;;
13764;SDS011;6953;48.810;9.204;2023-02-22T05:14:25;0.70;;;0.70;;
13764;SDS011;6953;48.810;9.204;2023-02-22T05:16:53;0.67;;;0.67;;
13764;SDS011;6953;48.810;9.204;2023-02-22T05:19:19;0.60;;;0.60;;
13764;SDS011;6953;48.810;9.204;2023-02-22T05:21:45;0.70;;;0.70;;
13764;SDS011;6953;48.810;9.204;2023-02-22T05:24:10;0.60;;;0.60;;
13764;SDS011;6953;48.810;9.204;2023-02-22T05:26:35;0.60;;;0.60;;
13764;SDS011;6953;48.810;9.204;2023-02-22T05:29:01;0.60;;;0.60;;
13764;SDS011;6953;48.810;9.204;2023-02-22T05:31:26;0.70;;;0.70;;
13764;SDS011;6953;48.810;9.204;2023-02-22T05:33:51;0.63;;;0.63;;
13764;SDS011;6953;48.810;9.204;2023-02-22T05:36:17;0.60;;;0.60;;
13764;SDS011;6953;48.810;9.204;2023-02-22T05:38:42;0.70;;;0.70;;
13764;SDS011;6953;48.810;9.204;2023-02-22T05:41:09;0.60;;;0.60;;
13764;SDS011;6953;48.810;9.204;2023-02-22T05:43:35;0.53;;;0.53;;
13764;SDS011;6953;48.810;9.204;2023-02-22T05:46:01;0.60;;;0.60;;
13764;SDS011;6953;48.810;9.204;2023-02-22T05:48:27;0.60;;;0.60;;
13764;SDS011;6953;48.810;9.204;2023-02-22T05:50:52;0.57;;;0.57;;
13764;SDS011;6953;48.810;9.204;2023-02-22T05:53:17;0.70;;;0.70;;
13764;SDS011;6953;48.810;9.204;2023-02-22T05:55:43;0.70;;;0.70;;
13764;SDS011;6953;48.810;9.204;2023-02-22T05:58:08;0.80;;;0.80;;
13764;SDS011;6953;48.810;9.204;2023-02-22T06:00:34;0.77;;;0.77;;
13764;SDS011;6953;48.810;9.204;2023-02-22T06:03:01;0.60;;;0.60;;
13764;SDS011;6953;48.810;9.204;2023-02-22T06:05:29;0.80;;;0.80;;
13764;SDS011;6953;48.810;9.204;2023-02-22T06:07:55;0.70;;;0.70;;
13764;SDS011;6953;48.810;9.204;2023-02-22T06:10:22;0.60;;;0.60;;
13764;SDS011;6953;48.810;9.204;2023-02-22T06:12:48;0.60;;;0.60;;
13764;SDS011;6953;48.810;9.204;2023-02-22T06:15:15;0.70;;;0.70;;
13764;SDS011;6953;48.810;9.204;2023-02-22T06:17:41;0.60;;;0.60;;
13764;SDS011;6953;48.810;9.204;2023-02-22T06:20:10;0.63;;;0.63;;
13764;SDS011;6953;48.810;9.204;2023-02-22T06:22:37;0.50;;;0.50;;
13764;SDS011;6953;48.810;9.204;2023-02-22T06:25:05;0.60;;;0.60;;
13764;SDS011;6953;48.810;9.204;2023-02-22T06:27:31;0.53;;;0.53;;
13764;SDS011;6953;48.810;9.204;2023-02-22T06:29:57;0.50;;;0.50;;
13764;SDS011;6953;48.810;9.204;2023-02-22T06:32:23;0.47;;;0.47;;
13764;SDS011;6953;48.810;9.204;2023-02-22T06:34:48;0.57;;;0.57;;
13764;SDS011;6953;48.810;9.204;2023-02-22T06:37:14;0.70;;;0.70;;
13764;SDS011;6953;48.810;9.204;2023-02-22T06:39:39;0.70;;;0.70;;
13764;SDS011;6953;48.810;9.204;2023-02-22T06:42:04;0.70;;;0.70;;
13764;SDS011;6953;48.810;9.204;2023-02-22T06:44:30;0.50;;;0.50;;
13764;SDS011;6953;48.810;9.204;2023-02-22T06:46:55;0.63;;;0.63;;
13764;SDS011;6953;48.810;9.204;2023-02-22T06:49:21;0.60;;;0.60;;
13764;SDS011;6953;48.810;9.204;2023-02-22T06:51:46;0.60;;;0.60;;
13764;SDS011;6953;48.810;9.204;2023-02-22T06:54:12;0.60;;;0.60;;
13764;SDS011;6953;48.810;9.204;2023-02-22T06:56:38;0.60;;;0.60;;
13764;SDS011;6953;48.810;9.204;2023-02-22T06:59:03;0.70;;;0.70;;
13764;SDS011;6953;48.810;9.204;2023-02-22T07:01:29;0.50;;;0.50;;
13764;SDS011;6953;48.810;9.204;2023-02-22T07:03:55;0.50;;;0.50;;
13764;SDS011;6953;48.810;9.204;2023-02-22T07:06:20;0.50;;;0.50;;
13764;SDS011;6953;48.810;9.204;2023-02-22T07:08:46;0.50;;;0.50;;
13764;SDS011;6953;48.810;9.204;2023-02-22T07:11:12;0.70;;;0.70;;
13764;SDS011;6953;48.810;9.204;2023-02-22T07:13:38;0.60;;;0.60;;
13764;SDS011;6953;48.810;9.204;2023-02-22T07:16:03;0.60;;;0.60;;
13764;SDS011;6953;48.810;9.204;2023-02-22T07:18:29;0.63;;;0.63;;
13764;SDS011;6953;48.810;9.204;2023-02-22T07:20:54;0.60;;;0.60;;
13764;SDS011;6953;48.810;9.204;2023-02-22T07:23:20;0.70;;;0.70;;
13764;SDS011;6953;48.810;9.204;2023-02-22T07:25:45;0.50;;;0.50;;
13764;SDS011;6953;48.810;9.204;2023-02-22T07:28:11;0.70;;;0.70;;
13764;SDS011;6953;48.810;9.204;2023-02-22T07:30:37;0.50;;;0.50;;
13764;SDS011;6953;48.810;9.204;2023-02-22T07:33:03;0.70;;;0.70;;
13764;SDS011;6953;48.810;9.204;2023-02-22T07:35:31;0.50;;;0.50;;
13764;SDS011;6953;48.810;9.204;2023-02-22T07:38:00;0.50;;;0.50;;
13764;SDS011;6953;48.810;9.204;2023-02-22T07:40:26;0.60;;;0.60;;
13764;SDS011;6953;48.810;9.204;2023-02-22T07:42:56;0.70;;;0.70;;
13764;SDS011;6953;48.810;9.204;2023-02-22T07:45:22;0.60;;;0.60;;
13764;SDS011;6953;48.810;9.204;2023-02-22T07:47:49;0.50;;;0.50;;
13764;SDS011;6953;48.810;9.204;2023-02-22T07:50:15;0.57;;;0.57;;
13764;SDS011;6953;48.810;9.204;2023-02-22T07:52:47;0.40;;;0.40;;
13764;SDS011;6953;48.810;9.204;2023-02-22T07:55:15;0.50;;;0.50;;
13764;SDS011;6953;48.810;9.204;2023-02-22T07:57:42;0.60;;;0.60;;
13764;SDS011;6953;48.810;9.204;2023-02-22T08:00:09;0.50;;;0.50;;
13764;SDS011;6953;48.810;9.204;2023-02-22T08:02:35;0.50;;;0.50;;
13764;SDS011;6953;48.810;9.204;2023-02-22T08:05:01;0.60;;;0.60;;
13764;SDS011;6953;48.810;9.204;2023-02-22T08:07:26;0.60;;;0.60;;
13764;SDS011;6953;48.810;9.204;2023-02-22T08:09:51;0.60;;;0.60;;
13764;SDS011;6953;48.810;9.204;2023-02-22T08:12:16;0.60;;;0.60;;
13764;SDS011;6953;48.810;9.204;2023-02-22T08:14:42;0.40;;;0.40;;
13764;SDS011;6953;48.810;9.204;2023-02-22T08:17:07;0.50;;;0.50;;
13764;SDS011;6953;48.810;9.204;2023-02-22T08:19:33;0.45;;;0.45;;
13764;SDS011;6953;48.810;9.204;2023-02-22T08:21:58;0.60;;;0.60;;
13764;SDS011;6953;48.810;9.204;2023-02-22T08:24:24;0.55;;;0.55;;
13764;SDS011;6953;48.810;9.204;2023-02-22T08:26:49;0.40;;;0.40;;
13764;SDS011;6953;48.810;9.204;2023-02-22T08:29:14;0.30;;;0.30;;
13764;SDS011;6953;48.810;9.204;2023-02-22T08:31:40;0.30;;;0.30;;
13764;SDS011;6953;48.810;9.204;2023-02-22T08:34:05;0.40;;;0.40;;
13764;SDS011;6953;48.810;9.204;2023-02-22T08:36:31;0.30;;;0.30;;
13764;SDS011;6953;48.810;9.204;2023-02-22T08:38:58;0.20;;;0.20;;
13764;SDS011;6953;48.810;9.204;2023-02-22T08:41:23;0.25;;;0.25;;
13764;SDS011;6953;48.810;9.204;2023-02-22T08:43:49;0.22;;;0.22;;
13764;SDS011;6953;48.810;9.204;2023-02-22T08:46:17;0.20;;;0.20;;
13764;SDS011;6953;48.810;9.204;2023-02-22T08:48:49;0.20;;;0.20;;
13764;SDS011;6953;48.810;9.204;2023-02-22T08:51:16;0.15;;;0.15;;
13764;SDS011;6953;48.810;9.204;2023-02-22T08:53:42;0.10;;;0.10;;
13764;SDS011;6953;48.810;9.204;2023-02-22T08:56:08;0.20;;;0.20;;
13764;SDS011;6953;48.810;9.204;2023-02-22T08:58:33;0.20;;;0.20;;
13764;SDS011;6953;48.810;9.204;2023-02-22T09:00:59;0.10;;;0.10;;
13764;SDS011;6953;48.810;9.204;2023-02-22T09:03:24;0.10;;;0.10;;
13764;SDS011;6953;48.810;9.204;2023-02-22T09:05:50;0.15;;;0.15;;
13764;SDS011;6953;48.810;9.204;2023-02-22T09:08:15;0.20;;;0.20;;
13764;SDS011;6953;48.810;9.204;2023-02-22T09:10:42;0.10;;;0.10;;
13764;SDS011;6953;48.810;9.204;2023-02-22T09:13:09;0.10;;;0.10;;
13764;SDS011;6953;48.810;9.204;2023-02-22T09:15:35;0.20;;;0.20;;
13764;SDS011;6953;48.810;9.204;2023-02-22T09:18:01;0.20;;;0.20;;
13764;SDS011;6953;48.810;9.204;2023-02-22T09:20:28;0.10;;;0.10;;
13764;SDS011;6953;48.810;9.204;2023-02-22T09:22:53;0.20;;;0.20;;
13764;SDS011;6953;48.810;9.204;2023-02-22T09:25:19;0.10;;;0.10;;
13764;SDS011;6953;48.810;9.204;2023-02-22T09:27:51;0.20;;;0.20;;
13764;SDS011;6953;48.810;9.204;2023-02-22T09:30:21;0.10;;;0.10;;
13764;SDS011;6953;48.810;9.204;2023-02-22T09:32:53;0.15;;;0.15;;
13764;SDS011;6953;48.810;9.204;2023-02-22T09:35:20;0.10;;;0.10;;
13764;SDS011;6953;48.810;9.204;2023-02-22T09:37:51;0.15;;;0.15;;
13764;SDS011;6953;48.810;9.204;2023-02-22T09:40:23;0.10;;;0.10;;
13764;SDS011;6953;48.810;9.204;2023-02-22T09:51:24;0.10;;;0.10;;
13764;SDS011;6953;48.810;9.204;2023-02-22T09:53:55;0.10;;;0.10;;
13764;SDS011;6953;48.810;9.204;2023-02-22T09:56:24;0.10;;;0.10;;
13764;SDS011;6953;48.810;9.204;2023-02-22T09:58:55;0.10;;;0.10;;
13764;SDS011;6953;48.810;9.204;2023-02-22T10:01:29;0.10;;;0.10;;
13764;SDS011;6953;48.810;9.204;2023-02-22T10:07:04;0.10;;;0.10;;
13764;SDS011;6953;48.810;9.204;2023-02-22T10:09:40;0.10;;;0.10;;
13764;SDS011;6953;48.810;9.204;2023-02-22T10:20:41;0.00;;;0.00;;
13764;SDS011;6953;48.810;9.204;2023-02-22T10:23:27;0.10;;;0.10;;
13764;SDS011;6953;48.810;9.204;2023-02-22T10:28:37;0.10;;;0.10;;
13764;SDS011;6953;48.810;9.204;2023-02-22T10:31:08;0.10;;;0.10;;
13764;SDS011;6953;48.810;9.204;2023-02-22T10:33:45;0.00;;;0.00;;
13764;SDS011;6953;48.810;9.204;2023-02-22T10:36:17;0.10;;;0.10;;
13764;SDS011;6953;48.810;9.204;2023-02-22T10:39:22;0.10;;;0.10;;
13764;SDS011;6953;48.810;9.204;2023-02-22T10:41:55;0.10;;;0.10;;
13764;SDS011;6953;48.810;9.204;2023-02-22T10:44:29;0.10;;;0.10;;
13764;SDS011;6953;48.810;9.204;2023-02-22T10:46:54;0.10;;;0.10;;
13764;SDS011;6953;48.810;9.204;2023-02-22T10:49:24;0.10;;;0.10;;
13764;SDS011;6953;48.810;9.204;2023-02-22T10:51:59;0.10;;;0.10;;
13764;SDS011;6953;48.810;9.204;2023-02-22T10:54:39;0.10;;;0.10;;
13764;SDS011;6953;48.810;9.204;2023-02-22T10:57:06;0.10;;;0.10;;
13764;SDS011;6953;48.810;9.204;2023-02-22T10:59:34;0.10;;;0.10;;
13764;SDS011;6953;48.810;9.204;2023-02-22T11:02:07;0.10;;;0.10;;
13764;SDS011;6953;48.810;9.204;2023-02-22T11:04:44;0.20;;;0.20;;
13764;SDS011;6953;48.810;9.204;2023-02-22T11:12:34;0.10;;;0.10;;
13764;SDS011;6953;48.810;9.204;2023-02-22T11:15:17;0.10;;;0.10;;
13764;SDS011;6953;48.810;9.204;2023-02-22T11:17:44;0.10;;;0.10;;
13764;SDS011;6953;48.810;9.204;2023-02-22T11:20:20;0.10;;;0.10;;
13764;SDS011;6953;48.810;9.204;2023-02-22T11:22:52;0.10;;;0.10;;
13764;SDS011;6953;48.810;9.204;2023-02-22T11:25:20;0.10;;;0.10;;
13764;SDS011;6953;48.810;9.204;2023-02-22T11:27:52;0.10;;;0.10;;
13764;SDS011;6953;48.810;9.204;2023-02-22T11:30:25;0.10;;;0.10;;
13764;SDS011;6953;48.810;9.204;2023-02-22T11:32:57;0.10;;;0.10;;
13764;SDS011;6953;48.810;9.204;2023-02-22T11:37:52;0.10;;;0.10;;
13764;SDS011;6953;48.810;9.204;2023-02-22T11:42:47;0.10;;;0.10;;
13764;SDS011;6953;48.810;9.204;2023-02-22T11:47:52;0.10;;;0.10;;
13764;SDS011;6953;48.810;9.204;2023-02-22T11:55:38;0.10;;;0.10;;
13764;SDS011;6953;48.810;9.204;2023-02-22T12:00:52;0.10;;;0.10;;
13764;SDS011;6953;48.810;9.204;2023-02-22T12:06:45;0.10;;;0.10;;
13764;SDS011;6953;48.810;9.204;2023-02-22T12:09:15;0.10;;;0.10;;
13764;SDS011;6953;48.810;9.204;2023-02-22T12:20:19;0.10;;;0.10;;
13764;SDS011;6953;48.810;9.204;2023-02-22T12:23:00;0.00;;;0.00;;
13764;SDS011;6953;48.810;9.204;2023-02-22T12:25:32;0.05;;;0.05;;
13764;SDS011;6953;48.810;9.204;2023-02-22T12:28:14;0.00;;;0.00;;
13764;SDS011;6953;48.810;9.204;2023-02-22T12:30:44;0.10;;;0.10;;
13764;SDS011;6953;48.810;9.204;2023-02-22T12:33:16;0.10;;;0.10;;
13764;SDS011;6953;48.810;9.204;2023-02-22T12:35:49;0.10;;;0.10;;
13764;SDS011;6953;48.810;9.204;2023-02-22T12:38:22;0.10;;;0.10;;
13764;SDS011;6953;48.810;9.204;2023-02-22T12:41:11;0.10;;;0.10;;
13764;SDS011;6953;48.810;9.204;2023-02-22T12:43:45;0.10;;;0.10;;
13764;SDS011;6953;48.810;9.204;2023-02-22T12:46:23;0.10;;;0.10;;
13764;SDS011;6953;48.810;9.204;2023-02-22T12:49:09;0.10;;;0.10;;
13764;SDS011;6953;48.810;9.204;2023-02-22T12:51:47;0.10;;;0.10;;
13764;SDS011;6953;48.810;9.204;2023-02-22T12:54:24;0.00;;;0.00;;
13764;SDS011;6953;48.810;9.204;2023-02-22T12:56:57;0.10;;;0.10;;
13764;SDS011;6953;48.810;9.204;2023-02-22T12:59:48;0.10;;;0.10;;
13764;SDS011;6953;48.810;9.204;2023-02-22T13:02:36;0.10;;;0.10;;
13764;SDS011;6953;48.810;9.204;2023-02-22T13:05:14;0.10;;;0.10;;
13764;SDS011;6953;48.810;9.204;2023-02-22T13:08:25;0.10;;;0.10;;
13764;SDS011;6953;48.810;9.204;2023-02-22T13:13:17;0.10;;;0.10;;
13764;SDS011;6953;48.810;9.204;2023-02-22T13:19:00;0.10;;;0.10;;
13764;SDS011;6953;48.810;9.204;2023-02-22T13:26:39;0.10;;;0.10;;
13764;SDS011;6953;48.810;9.204;2023-02-22T13:29:11;0.10;;;0.10;;
13764;SDS011;6953;48.810;9.204;2023-02-22T13:37:29;0.13;;;0.13;;
13764;SDS011;6953;48.810;9.204;2023-02-22T13:54:40;0.20;;;0.20;;
13764;SDS011;6953;48.810;9.204;2023-02-22T14:05:35;0.20;;;0.20;;
13764;SDS011;6953;48.810;9.204;2023-02-22T14:08:01;0.20;;;0.20;;
13764;SDS011;6953;48.810;9.204;2023-02-22T14:10:34;0.20;;;0.20;;
13764;SDS011;6953;48.810;9.204;2023-02-22T14:13:02;0.20;;;0.20;;
13764;SDS011;6953;48.810;9.204;2023-02-22T14:15:29;0.20;;;0.20;;
13764;SDS011;6953;48.810;9.204;2023-02-22T14:17:58;0.30;;;0.30;;
13764;SDS011;6953;48.810;9.204;2023-02-22T14:22:57;0.30;;;0.30;;
13764;SDS011;6953;48.810;9.204;2023-02-22T14:25:46;0.20;;;0.20;;
13764;SDS011;6953;48.810;9.204;2023-02-22T14:31:08;0.28;;;0.28;;
13764;SDS011;6953;48.810;9.204;2023-02-22T14:33:49;0.30;;;0.30;;
13764;SDS011;6953;48.810;9.204;2023-02-22T14:36:40;0.30;;;0.30;;
13764;SDS011;6953;48.810;9.204;2023-02-22T14:39:26;0.30;;;0.30;;
13764;SDS011;6953;48.810;9.204;2023-02-22T14:42:01;0.20;;;0.20;;
13764;SDS011;6953;48.810;9.204;2023-02-22T14:44:36;0.28;;;0.28;;
13764;SDS011;6953;48.810;9.204;2023-02-22T14:47:08;0.20;;;0.20;;
13764;SDS011;6953;48.810;9.204;2023-02-22T14:50:01;0.30;;;0.30;;
13764;SDS011;6953;48.810;9.204;2023-02-22T14:52:31;0.30;;;0.30;;
13764;SDS011;6953;48.810;9.204;2023-02-22T14:55:19;0.30;;;0.30;;
13764;SDS011;6953;48.810;9.204;2023-02-22T15:00:42;0.30;;;0.30;;
13764;SDS011;6953;48.810;9.204;2023-02-22T15:03:24;0.30;;;0.30;;
13764;SDS011;6953;48.810;9.204;2023-02-22T15:06:02;0.20;;;0.20;;
13764;SDS011;6953;48.810;9.204;2023-02-22T15:08:38;0.20;;;0.20;;
13764;SDS011;6953;48.810;9.204;2023-02-22T15:11:10;0.30;;;0.30;;
13764;SDS011;6953;48.810;9.204;2023-02-22T15:13:51;0.20;;;0.20;;
13764;SDS011;6953;48.810;9.204;2023-02-22T15:16:20;0.30;;;0.30;;
13764;SDS011;6953;48.810;9.204;2023-02-22T15:18:49;0.30;;;0.30;;
13764;SDS011;6953;48.810;9.204;2023-02-22T15:21:24;0.30;;;0.30;;
13764;SDS011;6953;48.810;9.204;2023-02-22T15:28:46;0.30;;;0.30;;
13764;SDS011;6953;48.810;9.204;2023-02-22T15:31:16;0.30;;;0.30;;
13764;SDS011;6953;48.810;9.204;2023-02-22T15:33:48;0.30;;;0.30;;
13764;SDS011;6953;48.810;9.204;2023-02-22T15:36:17;0.30;;;0.30;;
13764;SDS011;6953;48.810;9.204;2023-02-22T15:38:47;0.30;;;0.30;;
13764;SDS011;6953;48.810;9.204;2023-02-22T15:41:23;0.30;;;0.30;;
13764;SDS011;6953;48.810;9.204;2023-02-22T15:44:06;0.30;;;0.30;;
13764;SDS011;6953;48.810;9.204;2023-02-22T15:46:35;0.40;;;0.40;;
13764;SDS011;6953;48.810;9.204;2023-02-22T15:51:35;0.40;;;0.40;;
13764;SDS011;6953;48.810;9.204;2023-02-22T15:54:04;0.40;;;0.40;;
13764;SDS011;6953;48.810;9.204;2023-02-22T15:56:33;0.30;;;0.30;;
13764;SDS011;6953;48.810;9.204;2023-02-22T15:59:08;0.30;;;0.30;;
13764;SDS011;6953;48.810;9.204;2023-02-22T16:01:37;0.38;;;0.38;;
13764;SDS011;6953;48.810;9.204;2023-02-22T16:04:05;0.40;;;0.40;;
13764;SDS011;6953;48.810;9.204;2023-02-22T16:06:31;0.28;;;0.28;;
13764;SDS011;6953;48.810;9.204;2023-02-22T16:09:09;0.32;;;0.32;;
13764;SDS011;6953;48.810;9.204;2023-02-22T16:11:38;0.30;;;0.30;;
13764;SDS011;6953;48.810;9.204;2023-02-22T16:22:43;0.30;;;0.30;;
13764;SDS011;6953;48.810;9.204;2023-02-22T16:32:46;0.40;;;0.40;;
13764;SDS011;6953;48.810;9.204;2023-02-22T16:35:13;0.30;;;0.30;;
13764;SDS011;6953;48.810;9.204;2023-02-22T16:37:49;0.30;;;0.30;;
13764;SDS011;6953;48.810;9.204;2023-02-22T16:40:49;0.30;;;0.30;;
13764;SDS011;6953;48.810;9.204;2023-02-22T16:43:26;0.40;;;0.40;;
13764;SDS011;6953;48.810;9.204;2023-02-22T16:45:57;0.30;;;0.30;;
13764;SDS011;6953;48.810;9.204;2023-02-22T16:48:26;0.30;;;0.30;;
13764;SDS011;6953;48.810;9.204;2023-02-22T16:50:54;0.30;;;0.30;;
13764;SDS011;6953;48.810;9.204;2023-02-22T16:53:24;0.32;;;0.32;;
13764;SDS011;6953;48.810;9.204;2023-02-22T16:55:53;0.40;;;0.40;;
13764;SDS011;6953;48.810;9.204;2023-02-22T16:58:24;0.38;;;0.38;;
13764;SDS011;6953;48.810;9.204;2023-02-22T17:00:53;0.40;;;0.40;;
13764;SDS011;6953;48.810;9.204;2023-02-22T17:03:21;0.40;;;0.40;;
13764;SDS011;6953;48.810;9.204;2023-02-22T17:05:47;0.40;;;0.40;;
13764;SDS011;6953;48.810;9.204;2023-02-22T17:08:13;0.45;;;0.45;;
13764;SDS011;6953;48.810;9.204;2023-02-22T17:10:40;0.38;;;0.38;;
13764;SDS011;6953;48.810;9.204;2023-02-22T17:13:06;0.40;;;0.40;;
13764;SDS011;6953;48.810;9.204;2023-02-22T17:15:32;0.40;;;0.40;;
13764;SDS011;6953;48.810;9.204;2023-02-22T17:17:59;0.40;;;0.40;;
13764;SDS011;6953;48.810;9.204;2023-02-22T17:20:28;0.40;;;0.40;;
13764;SDS011;6953;48.810;9.204;2023-02-22T17:22:58;0.40;;;0.40;;
13764;SDS011;6953;48.810;9.204;2023-02-22T17:26:10;0.40;;;0.40;;
13764;SDS011;6953;48.810;9.204;2023-02-22T17:28:23;0.28;;;0.28;;
13764;SDS011;6953;48.810;9.204;2023-02-22T17:30:49;0.35;;;0.35;;
13764;SDS011;6953;48.810;9.204;2023-02-22T17:33:20;0.43;;;0.43;;
13764;SDS011;6953;48.810;9.204;2023-02-22T17:35:50;0.50;;;0.50;;
13764;SDS011;6953;48.810;9.204;2023-02-22T17:38:16;0.38;;;0.38;;
13764;SDS011;6953;48.810;9.204;2023-02-22T17:40:42;0.40;;;0.40;;
13764;SDS011;6953;48.810;9.204;2023-02-22T17:43:12;0.50;;;0.50;;
13764;SDS011;6953;48.810;9.204;2023-02-22T17:45:38;0.40;;;0.40;;
13764;SDS011;6953;48.810;9.204;2023-02-22T17:48:06;0.40;;;0.40;;
13764;SDS011;6953;48.810;9.204;2023-02-22T17:50:33;0.50;;;0.50;;
13764;SDS011;6953;48.810;9.204;2023-02-22T17:53:00;0.50;;;0.50;;
13764;SDS011;6953;48.810;9.204;2023-02-22T17:55:27;0.40;;;0.40;;